createdAt,value
2022-11-04T00:02:03.408Z,1.27
2022-11-04T00:04:30.634Z,1.20
2022-11-04T00:06:57.728Z,1.47
2022-11-04T00:09:27.576Z,1.50
2022-11-04T00:12:13.092Z,1.67
2022-11-04T00:14:39.627Z,2.00
2022-11-04T00:17:19.124Z,1.70
2022-11-04T00:20:05.190Z,1.70
2022-11-04T00:22:50.300Z,1.60
2022-11-04T00:25:35.294Z,1.80
2022-11-04T00:28:44.324Z,1.57
2022-11-04T00:31:30.269Z,1.87
2022-11-04T00:33:58.404Z,1.77
2022-11-04T00:36:26.241Z,1.70
2022-11-04T00:38:53.439Z,1.90
2022-11-04T00:41:26.461Z,1.87
2022-11-04T00:43:58.629Z,1.90
2022-11-04T00:46:26.000Z,1.77
2022-11-04T00:48:52.949Z,1.97
2022-11-04T00:51:21.335Z,2.20
2022-11-04T00:53:48.210Z,1.80
2022-11-04T00:56:14.726Z,1.97
2022-11-04T00:58:41.227Z,2.13
2022-11-04T01:01:13.289Z,2.23
2022-11-04T01:03:40.239Z,1.73
2022-11-04T01:06:06.808Z,1.60
2022-11-04T01:08:33.400Z,1.80
2022-11-04T01:11:07.963Z,2.00
2022-11-04T01:13:34.918Z,2.00
2022-11-04T01:16:03.416Z,1.43
2022-11-04T01:18:29.949Z,1.77
2022-11-04T01:21:00.837Z,1.30
2022-11-04T01:23:27.639Z,1.70
2022-11-04T01:25:54.084Z,2.10
2022-11-04T01:28:20.582Z,1.60
2022-11-04T01:30:47.054Z,1.80
2022-11-04T01:33:13.535Z,1.80
2022-11-04T01:35:40.024Z,2.03
2022-11-04T01:38:09.695Z,2.07
2022-11-04T01:40:38.298Z,2.50
2022-11-04T01:43:14.489Z,1.80
2022-11-04T01:45:48.662Z,2.47
2022-11-04T01:48:22.222Z,2.27
2022-11-04T01:50:51.170Z,1.93
2022-11-04T01:53:28.321Z,2.20
2022-11-04T01:55:58.540Z,1.83
2022-11-04T01:58:29.922Z,2.00
2022-11-04T02:00:56.512Z,1.83
2022-11-04T02:04:19.033Z,2.83
2022-11-04T02:06:49.692Z,2.00
2022-11-04T02:09:18.208Z,1.47
2022-11-04T02:12:03.246Z,1.87
2022-11-04T02:14:31.083Z,1.60
2022-11-04T02:17:47.144Z,1.60
2022-11-04T02:20:32.433Z,1.60
2022-11-04T02:23:29.440Z,1.53
2022-11-04T02:26:37.710Z,1.73
2022-11-04T02:29:22.214Z,1.87
2022-11-04T02:32:03.388Z,1.33
2022-11-04T02:34:32.918Z,1.50
2022-11-04T02:37:08.579Z,1.37
2022-11-04T02:39:39.649Z,1.50
2022-11-04T02:42:26.495Z,1.50
2022-11-04T02:45:13.062Z,1.33
2022-11-04T02:47:45.260Z,1.30
2022-11-04T02:50:23.709Z,1.47
2022-11-04T02:52:52.871Z,1.23
2022-11-04T02:55:27.672Z,1.30
2022-11-04T02:57:59.213Z,1.50
2022-11-04T03:00:25.772Z,1.10
2022-11-04T03:03:00.489Z,1.20
2022-11-04T03:05:32.833Z,1.50
2022-11-04T03:08:04.488Z,1.10
2022-11-04T03:10:45.190Z,1.30
2022-11-04T03:13:16.854Z,1.33
2022-11-04T03:15:51.243Z,1.37
2022-11-04T03:18:42.328Z,1.30
2022-11-04T03:21:11.657Z,1.37
2022-11-04T03:23:39.523Z,1.20
2022-11-04T03:26:22.067Z,1.10
2022-11-04T03:28:58.096Z,1.20
2022-11-04T03:31:39.364Z,1.37
2022-11-04T03:34:05.991Z,1.20
2022-11-04T03:36:32.444Z,1.20
2022-11-04T03:38:58.975Z,1.13
2022-11-04T03:41:36.651Z,1.00
2022-11-04T03:44:03.432Z,1.10
2022-11-04T03:46:30.139Z,1.10
2022-11-04T03:48:58.963Z,1.10
2022-11-04T03:51:25.416Z,0.93
2022-11-04T03:53:52.045Z,0.90
2022-11-04T03:56:47.161Z,1.50
2022-11-04T03:59:35.286Z,1.20
2022-11-04T04:02:19.341Z,1.50
2022-11-04T04:05:09.956Z,1.40
2022-11-04T04:07:47.693Z,1.70
2022-11-04T04:10:39.178Z,1.77
2022-11-04T04:13:12.246Z,1.90
2022-11-04T04:15:49.083Z,1.70
2022-11-04T04:18:19.577Z,1.70
2022-11-04T04:20:49.169Z,1.70
2022-11-04T04:23:39.931Z,1.87
2022-11-04T04:26:27.868Z,1.93
2022-11-04T04:28:56.634Z,2.10
2022-11-04T04:31:42.767Z,1.50
2022-11-04T04:34:09.976Z,2.00
2022-11-04T04:36:46.503Z,1.90
2022-11-04T04:39:35.780Z,1.93
2022-11-04T04:42:21.564Z,1.70
2022-11-04T04:44:59.909Z,1.90
2022-11-04T04:47:30.230Z,1.80
2022-11-04T04:49:59.065Z,1.83
2022-11-04T04:52:36.411Z,1.87
2022-11-04T04:55:03.046Z,2.50
2022-11-04T04:57:29.514Z,1.70
2022-11-04T04:59:55.991Z,1.53
2022-11-04T05:02:22.734Z,1.73
2022-11-04T05:04:49.308Z,1.90
2022-11-04T05:07:15.872Z,1.67
2022-11-04T05:09:42.616Z,1.83
2022-11-04T05:12:09.954Z,1.70
2022-11-04T05:14:36.846Z,1.40
2022-11-04T05:17:03.576Z,1.27
2022-11-04T05:19:30.110Z,1.20
2022-11-04T05:21:56.534Z,1.53
2022-11-04T05:24:23.012Z,1.37
2022-11-04T05:26:49.524Z,1.20
2022-11-04T05:29:16.086Z,1.20
2022-11-04T05:31:42.797Z,1.20
2022-11-04T05:34:13.262Z,1.23
2022-11-04T05:36:40.153Z,1.10
2022-11-04T05:39:07.288Z,0.90
2022-11-04T05:41:34.636Z,0.90
2022-11-04T05:44:03.704Z,0.90
2022-11-04T05:46:31.248Z,0.80
2022-11-04T05:48:57.758Z,0.90
2022-11-04T05:51:26.915Z,1.13
2022-11-04T05:53:53.429Z,1.30
2022-11-04T05:56:19.952Z,0.93
2022-11-04T05:58:46.396Z,1.00
2022-11-04T06:01:29.587Z,0.90
2022-11-04T06:03:57.307Z,0.90
2022-11-04T06:06:25.557Z,1.23
2022-11-04T06:08:52.310Z,1.27
2022-11-04T06:11:20.424Z,1.30
2022-11-04T06:13:47.012Z,1.17
2022-11-04T06:16:13.909Z,1.10
2022-11-04T06:18:40.376Z,1.10
2022-11-04T06:21:12.908Z,1.10
2022-11-04T06:23:40.535Z,1.30
2022-11-04T06:26:07.293Z,1.10
2022-11-04T06:28:33.754Z,1.30
2022-11-04T06:31:02.439Z,1.63
2022-11-04T06:33:35.415Z,1.17
2022-11-04T06:36:05.306Z,1.10
2022-11-04T06:38:33.868Z,1.33
2022-11-04T06:41:00.602Z,1.00
2022-11-04T06:43:27.276Z,0.90
2022-11-04T06:46:01.659Z,1.67
2022-11-04T06:48:30.622Z,1.20
2022-11-04T06:50:59.010Z,1.40
2022-11-04T06:53:26.311Z,1.47
2022-11-04T06:55:53.993Z,1.87
2022-11-04T06:58:20.480Z,1.77
2022-11-04T07:00:53.582Z,1.20
2022-11-04T07:03:20.127Z,1.00
2022-11-04T07:05:46.567Z,1.17
2022-11-04T07:08:13.202Z,1.53
2022-11-04T07:10:39.711Z,1.30
2022-11-04T07:13:06.240Z,1.23
2022-11-04T07:15:33.349Z,1.30
2022-11-04T07:18:00.338Z,1.00
2022-11-04T07:20:26.940Z,1.20
2022-11-04T07:22:56.425Z,1.50
2022-11-04T07:25:23.164Z,1.30
2022-11-04T07:27:49.696Z,1.40
2022-11-04T07:30:16.307Z,1.20
2022-11-04T07:32:42.753Z,1.30
2022-11-04T07:35:09.548Z,1.37
2022-11-04T07:37:36.012Z,1.40
2022-11-04T07:40:02.766Z,1.80
2022-11-04T07:42:29.334Z,1.83
2022-11-04T07:44:56.099Z,1.37
2022-11-04T07:47:25.014Z,2.13
2022-11-04T07:49:51.580Z,1.83
2022-11-04T07:52:18.112Z,1.43
2022-11-04T07:54:44.593Z,1.27
2022-11-04T07:57:11.044Z,1.50
2022-11-04T07:59:37.582Z,1.10
2022-11-04T08:02:04.557Z,0.97
2022-11-04T08:04:33.832Z,1.40
2022-11-04T08:07:00.286Z,1.40
2022-11-04T08:09:26.820Z,0.87
2022-11-04T08:11:53.459Z,1.20
2022-11-04T08:14:19.918Z,1.20
2022-11-04T08:16:46.819Z,1.77
2022-11-04T08:19:13.849Z,1.20
2022-11-04T08:21:40.387Z,1.40
2022-11-04T08:24:06.974Z,1.50
2022-11-04T08:26:33.491Z,2.03
2022-11-04T08:29:02.321Z,1.20
2022-11-04T08:31:31.496Z,1.87
2022-11-04T08:33:58.024Z,1.10
2022-11-04T08:36:31.624Z,1.40
2022-11-04T08:38:58.716Z,1.10
2022-11-04T08:41:29.156Z,1.17
2022-11-04T08:43:56.860Z,1.10
2022-11-04T08:46:23.409Z,1.20
2022-11-04T08:48:50.605Z,1.40
2022-11-04T08:51:21.149Z,0.90
2022-11-04T08:53:48.046Z,1.20
2022-11-04T08:56:18.643Z,1.70
2022-11-04T08:58:45.170Z,1.10
2022-11-04T09:01:12.723Z,1.00
2022-11-04T09:03:40.687Z,1.23
2022-11-04T09:06:10.664Z,1.03
2022-11-04T09:08:39.151Z,1.10
2022-11-04T09:11:11.906Z,1.10
2022-11-04T09:13:39.972Z,1.60
2022-11-04T09:16:08.055Z,1.30
2022-11-04T09:18:34.594Z,1.30
2022-11-04T09:21:05.669Z,1.60
2022-11-04T09:23:32.375Z,1.40
2022-11-04T09:26:05.030Z,1.17
2022-11-04T09:28:31.484Z,1.10
2022-11-04T09:30:57.984Z,1.40
2022-11-04T09:33:24.502Z,1.60
2022-11-04T09:35:55.951Z,1.20
2022-11-04T09:38:22.501Z,1.70
2022-11-04T09:40:50.767Z,1.50
2022-11-04T09:43:45.585Z,1.00
2022-11-04T09:46:13.814Z,1.10
2022-11-04T09:48:53.742Z,1.27
2022-11-04T09:51:48.037Z,1.53
2022-11-04T09:54:45.850Z,2.33
2022-11-04T10:01:12.407Z,1.90
2022-11-04T10:03:53.542Z,1.50
2022-11-04T10:06:32.360Z,1.10
2022-11-04T10:09:04.801Z,1.00
2022-11-04T10:11:42.776Z,1.00
2022-11-04T10:14:35.155Z,1.03
2022-11-04T10:17:26.074Z,1.20
2022-11-04T10:20:10.779Z,1.00
2022-11-04T10:22:58.292Z,1.20
2022-11-04T10:25:42.987Z,1.30
2022-11-04T10:28:15.545Z,1.80
2022-11-04T10:30:44.724Z,1.10
2022-11-04T10:33:21.286Z,1.30
2022-11-04T10:35:52.955Z,1.43
2022-11-04T10:38:41.226Z,1.07
2022-11-04T10:41:22.948Z,0.90
2022-11-04T10:43:52.031Z,1.33
2022-11-04T10:46:38.767Z,1.10
2022-11-04T10:49:20.971Z,1.50
2022-11-04T10:51:47.633Z,1.43
2022-11-04T10:54:14.361Z,1.20
2022-11-04T10:56:52.083Z,0.90
2022-11-04T10:59:26.193Z,1.10
2022-11-04T11:01:57.940Z,1.10
2022-11-04T11:04:33.651Z,1.50
2022-11-04T11:07:05.981Z,0.80
2022-11-04T11:09:43.096Z,1.00
2022-11-04T11:12:44.131Z,0.80
2022-11-04T11:14:58.979Z,1.00
2022-11-04T11:17:37.507Z,1.00
2022-11-04T11:20:22.192Z,0.80
2022-11-04T11:22:51.954Z,1.00
2022-11-04T11:25:24.272Z,1.00
2022-11-04T11:28:12.544Z,1.10
2022-11-04T11:30:46.319Z,1.17
2022-11-04T11:33:27.995Z,0.87
2022-11-04T11:36:12.875Z,1.10
2022-11-04T11:38:52.960Z,1.10
2022-11-04T11:41:25.169Z,1.47
2022-11-04T11:43:54.493Z,1.07
2022-11-04T11:46:26.650Z,1.30
2022-11-04T11:49:00.841Z,1.17
2022-11-04T11:51:38.253Z,1.10
2022-11-04T11:54:17.486Z,0.80
2022-11-04T12:02:59.266Z,1.20
2022-11-04T12:12:05.884Z,0.90
2022-11-04T12:14:42.491Z,0.80
2022-11-04T12:17:23.267Z,0.90
2022-11-04T12:20:15.107Z,0.70
2022-11-04T12:23:07.806Z,0.67
2022-11-04T12:25:34.543Z,0.87
2022-11-04T12:28:25.606Z,0.80
2022-11-04T12:31:12.544Z,0.83
2022-11-04T12:33:48.094Z,0.90
2022-11-04T12:36:49.897Z,0.70
2022-11-04T12:39:34.251Z,0.70
2022-11-04T12:42:35.957Z,0.80
2022-11-04T12:45:24.919Z,0.80
2022-11-04T12:48:00.030Z,0.80
2022-11-04T12:50:29.515Z,0.73
2022-11-04T12:53:20.228Z,0.90
2022-11-04T12:56:13.942Z,0.80
2022-11-04T12:59:26.851Z,0.90
2022-11-04T13:02:11.190Z,1.07
2022-11-04T13:04:50.095Z,0.90
2022-11-04T13:07:24.679Z,1.00
2022-11-04T13:09:55.879Z,0.70
2022-11-04T13:12:36.811Z,1.03
2022-11-04T13:15:15.311Z,1.10
2022-11-04T13:17:44.108Z,0.90
2022-11-04T13:20:11.334Z,1.10
2022-11-04T13:22:39.391Z,0.90
2022-11-04T13:25:24.407Z,1.23
2022-11-04T13:27:51.513Z,1.30
2022-11-04T13:30:30.154Z,1.20
2022-11-04T13:33:07.763Z,0.80
2022-11-04T13:36:12.177Z,1.40
2022-11-04T13:38:47.287Z,1.50
2022-11-04T13:41:24.961Z,1.30
2022-11-04T13:44:01.831Z,1.73
2022-11-04T13:46:34.499Z,4.40
2022-11-04T13:49:11.991Z,1.83
2022-11-04T13:51:46.982Z,3.30
2022-11-04T13:54:53.006Z,2.30
2022-11-04T13:57:22.596Z,2.17
2022-11-04T14:00:11.078Z,2.10
2022-11-04T14:02:39.286Z,2.10
2022-11-04T14:05:27.207Z,1.97
2022-11-04T14:08:02.794Z,1.00
2022-11-04T14:10:48.012Z,1.70
2022-11-04T14:13:29.697Z,1.87
2022-11-04T14:16:03.828Z,1.90
2022-11-04T14:18:36.330Z,1.70
2022-11-04T14:21:08.140Z,1.50
2022-11-04T14:23:36.747Z,1.50
2022-11-04T14:26:15.783Z,1.40
2022-11-04T14:28:46.624Z,1.70
2022-11-04T14:31:32.123Z,1.63
2022-11-04T14:33:58.666Z,2.00
2022-11-04T14:36:31.374Z,1.80
2022-11-04T14:39:09.918Z,3.70
2022-11-04T14:41:39.356Z,1.20
2022-11-04T14:44:21.487Z,1.20
2022-11-04T14:46:52.915Z,1.20
2022-11-04T14:49:39.459Z,3.50
2022-11-04T14:52:16.244Z,5.10
2022-11-04T14:54:42.806Z,3.87
2022-11-04T14:57:18.228Z,4.10
2022-11-04T14:59:45.603Z,3.17
2022-11-04T15:02:19.592Z,3.17
2022-11-04T15:04:59.409Z,1.80
2022-11-04T15:07:38.696Z,1.93
2022-11-04T15:10:22.146Z,2.20
2022-11-04T15:12:51.828Z,2.33
2022-11-04T15:15:25.208Z,2.50
2022-11-04T15:17:51.796Z,3.13
2022-11-04T15:20:26.441Z,2.90
2022-11-04T15:22:55.557Z,5.83
2022-11-04T15:25:22.227Z,3.17
2022-11-04T15:27:49.030Z,3.00
2022-11-04T15:30:25.691Z,3.43
2022-11-04T15:33:01.103Z,3.40
2022-11-04T15:35:30.222Z,3.10
2022-11-04T15:37:59.473Z,3.40
2022-11-04T15:40:28.920Z,2.90
2022-11-04T15:42:56.951Z,3.07
2022-11-04T15:45:26.801Z,2.97
2022-11-04T15:48:25.764Z,2.73
2022-11-04T15:51:13.571Z,3.13
2022-11-04T15:54:02.933Z,2.90
2022-11-04T15:56:40.371Z,3.30
2022-11-04T15:59:14.009Z,3.00
2022-11-04T16:01:49.408Z,3.17
2022-11-04T16:04:17.747Z,3.50
2022-11-04T16:06:45.359Z,3.53
2022-11-04T16:09:28.479Z,3.70
2022-11-04T16:12:07.829Z,3.40
2022-11-04T16:14:34.994Z,4.17
2022-11-04T16:17:01.851Z,4.70
2022-11-04T16:19:30.158Z,4.83
2022-11-04T16:22:11.322Z,4.47
2022-11-04T16:24:40.503Z,7.30
2022-11-04T16:27:11.327Z,6.30
2022-11-04T16:29:40.695Z,6.13
2022-11-04T16:32:24.545Z,5.07
2022-11-04T16:34:54.072Z,5.10
2022-11-04T16:37:20.619Z,4.93
2022-11-04T16:39:47.103Z,5.13
2022-11-04T16:42:15.674Z,5.70
2022-11-04T16:44:56.552Z,6.50
2022-11-04T16:47:25.773Z,6.80
2022-11-04T16:49:52.223Z,6.13
2022-11-04T16:52:25.463Z,6.33
2022-11-04T16:54:52.560Z,7.20
2022-11-04T16:57:19.050Z,7.10
2022-11-04T16:59:45.622Z,8.87
2022-11-04T17:02:37.998Z,10.80
2022-11-04T17:05:05.421Z,14.20
2022-11-04T17:07:51.448Z,12.30
2022-11-04T17:10:25.971Z,8.77
2022-11-04T17:12:52.439Z,9.30
2022-11-04T17:15:19.051Z,9.07
2022-11-04T17:17:45.514Z,10.27
2022-11-04T17:20:14.283Z,10.80
2022-11-04T17:22:41.088Z,11.07
2022-11-04T17:25:20.903Z,11.67
2022-11-04T17:27:48.473Z,12.47
2022-11-04T17:30:16.980Z,13.37
2022-11-04T17:32:45.182Z,16.63
2022-11-04T17:35:12.677Z,15.13
2022-11-04T17:37:39.239Z,13.13
2022-11-04T17:40:07.755Z,13.70
2022-11-04T17:42:52.531Z,13.07
2022-11-04T17:45:19.056Z,11.70
2022-11-04T17:47:46.381Z,14.53
2022-11-04T17:50:13.755Z,13.23
2022-11-04T17:52:42.164Z,11.33
2022-11-04T17:55:15.341Z,10.17
2022-11-04T17:57:43.271Z,10.67
2022-11-04T18:00:10.625Z,8.80
2022-11-04T18:02:37.488Z,9.13
2022-11-04T18:05:04.313Z,9.70
2022-11-04T18:07:30.798Z,9.97
2022-11-04T18:09:57.231Z,10.93
2022-11-04T18:12:38.850Z,11.23
2022-11-04T18:15:11.057Z,11.67
2022-11-04T18:17:42.480Z,13.20
2022-11-04T18:20:14.554Z,14.73
2022-11-04T18:22:42.531Z,14.87
2022-11-04T18:25:10.125Z,17.30
2022-11-04T18:27:36.905Z,16.53
2022-11-04T18:30:03.972Z,14.37
2022-11-04T18:32:30.486Z,13.40
2022-11-04T18:34:57.587Z,12.43
2022-11-04T18:37:24.079Z,14.67
2022-11-04T18:39:50.555Z,13.00
2022-11-04T18:42:17.048Z,10.80
2022-11-04T18:44:43.504Z,12.97
2022-11-04T18:47:10.098Z,23.07
2022-11-04T18:49:36.584Z,26.57
2022-11-04T18:52:03.489Z,27.83
2022-11-04T18:54:30.297Z,54.00
2022-11-04T18:56:56.806Z,35.17
2022-11-04T18:59:23.272Z,33.17
2022-11-04T19:01:52.377Z,37.80
2022-11-04T19:04:19.227Z,49.23
2022-11-04T19:06:45.883Z,56.07
2022-11-04T19:12:20.877Z,27.30
2022-11-04T19:14:47.361Z,25.47
2022-11-04T19:17:14.014Z,21.80
2022-11-04T19:19:41.173Z,21.60
2022-11-04T19:22:08.217Z,24.27
2022-11-04T19:24:34.848Z,24.70
2022-11-04T19:27:01.441Z,24.73
2022-11-04T19:29:29.414Z,18.37
2022-11-04T19:31:56.058Z,17.40
2022-11-04T19:34:22.546Z,12.03
2022-11-04T19:36:49.120Z,10.00
2022-11-04T19:39:15.647Z,9.60
2022-11-04T19:42:00.478Z,9.67
2022-11-04T19:44:27.077Z,11.40
2022-11-04T19:46:53.838Z,14.00
2022-11-04T19:49:20.742Z,16.43
2022-11-04T19:51:47.406Z,15.20
2022-11-04T19:54:13.897Z,13.77
2022-11-04T19:56:40.712Z,13.17
2022-11-04T19:59:09.036Z,11.20
2022-11-04T20:01:36.381Z,12.10
2022-11-04T20:04:04.160Z,11.20
2022-11-04T20:06:32.377Z,12.10
2022-11-04T20:09:05.262Z,10.87
2022-11-04T20:11:33.320Z,10.50
2022-11-04T20:14:06.442Z,10.63
2022-11-04T20:16:39.142Z,10.17
2022-11-04T20:19:05.693Z,10.13
2022-11-04T20:21:35.283Z,10.33
2022-11-04T20:24:04.671Z,10.03
2022-11-04T20:26:32.862Z,11.57
2022-11-04T20:28:59.502Z,11.97
2022-11-04T20:31:28.652Z,13.30
2022-11-04T20:33:56.255Z,13.57
2022-11-04T20:36:25.980Z,12.77
2022-11-04T20:39:04.072Z,12.43
2022-11-04T20:41:31.344Z,12.80
2022-11-04T20:43:58.462Z,13.30
2022-11-04T20:46:27.343Z,13.10
2022-11-04T20:48:54.928Z,14.10
2022-11-04T20:51:24.443Z,14.63
2022-11-04T20:53:56.103Z,13.90
2022-11-04T20:56:28.509Z,13.23
2022-11-04T20:58:59.309Z,13.77
2022-11-04T21:01:35.358Z,13.17
2022-11-04T21:04:03.807Z,13.80
2022-11-04T21:06:31.175Z,13.33
2022-11-04T21:08:59.226Z,15.40
2022-11-04T21:11:31.913Z,16.60
2022-11-04T21:13:59.704Z,15.90
2022-11-04T21:16:26.549Z,15.17
2022-11-04T21:18:53.080Z,15.20
2022-11-04T21:21:19.592Z,15.47
2022-11-04T21:23:47.350Z,15.23
2022-11-04T21:26:18.261Z,15.83
2022-11-04T21:28:44.879Z,15.80
2022-11-04T21:31:12.412Z,16.40
2022-11-04T21:33:38.910Z,14.73
2022-11-04T21:36:10.991Z,14.63
2022-11-04T21:38:37.782Z,13.30
2022-11-04T21:41:08.626Z,13.37
2022-11-04T21:43:35.505Z,13.07
2022-11-04T21:46:10.787Z,11.63
2022-11-04T21:48:37.875Z,11.93
2022-11-04T21:51:07.258Z,13.50
2022-11-04T21:53:33.904Z,13.47
2022-11-04T21:56:18.390Z,13.47
2022-11-04T21:58:45.604Z,14.37
2022-11-04T22:01:18.044Z,13.90
2022-11-04T22:03:48.622Z,13.63
2022-11-04T22:06:15.074Z,14.47
2022-11-04T22:08:49.040Z,14.27
2022-11-04T22:11:18.925Z,14.03
2022-11-04T22:13:45.443Z,13.80
2022-11-04T22:16:13.187Z,14.13
2022-11-04T22:18:40.216Z,13.87
2022-11-04T22:21:09.757Z,13.47
2022-11-04T22:23:36.725Z,13.67
2022-11-04T22:26:05.744Z,13.50
2022-11-04T22:28:32.371Z,13.77
2022-11-04T22:31:17.495Z,14.17
2022-11-04T22:33:44.665Z,11.87
2022-11-04T22:36:12.581Z,10.93
2022-11-04T22:38:40.599Z,11.10
2022-11-04T22:41:09.555Z,10.40
2022-11-04T22:43:36.360Z,11.23
2022-11-04T22:46:15.627Z,12.07
2022-11-04T22:48:42.334Z,12.57
2022-11-04T22:51:10.033Z,12.67
2022-11-04T22:53:37.638Z,12.30
2022-11-04T22:56:05.864Z,13.10
2022-11-04T22:58:32.967Z,13.30
2022-11-04T23:01:02.463Z,12.37
2022-11-04T23:03:29.368Z,20.07
2022-11-04T23:06:00.613Z,19.77
2022-11-04T23:08:28.979Z,18.77
2022-11-04T23:11:20.054Z,24.50
2022-11-04T23:14:20.071Z,17.33
2022-11-04T23:17:07.882Z,18.73
2022-11-04T23:19:36.016Z,20.27
2022-11-04T23:22:21.265Z,17.70
2022-11-04T23:25:05.699Z,17.90
2022-11-04T23:27:55.939Z,14.93
2022-11-04T23:30:26.355Z,13.70
2022-11-04T23:33:01.080Z,13.43
2022-11-04T23:36:06.483Z,12.93
2022-11-04T23:38:33.724Z,13.53
2022-11-04T23:41:22.229Z,12.53
2022-11-04T23:43:48.904Z,12.20
2022-11-04T23:46:39.378Z,12.23
2022-11-04T23:49:24.362Z,12.27
2022-11-04T23:52:09.185Z,13.00
2022-11-04T23:54:54.221Z,13.10
2022-11-04T23:57:39.028Z,13.17
